METAR Analyzer

一覧表示

Hello, Guest. (Login)

KJFK/JFK  -  ジョン・F・ケネディ

観測日時
2021-08-05 01:51 (UTC) (50分前)
気温
21.1
露点
15.6
湿数
5.5
相対湿度
70.8%
QNH
1020.3hPa
推定現地気圧
1019.8hPa
推定海面気圧
1020.3hPa
体感温度
13.3
(無風時)
21.4
HI
21.1
気温前日比
±0
体感温度前日比
-3.3
HI前日比
-0.1
水平視程
>10SM
鉛直視程
データなし
雲底高度
4500ft AGL
V/I
VMC (VFR)
RVR
No RVR data
卓越風
11kt from 60°
ガスト
No gust
降水
報告なし
その他の天気
報告なし
少しの雲 @ 3000ft AGL / 全天を覆う雲 @ 4500ft AGL

KJFK 050151Z 06011KT 10SM FEW030 OVC045 21/16 A3013 RMK AO2 SLP201 T02110156

KLGA/LGA  -  ラガーディア

観測日時
2021-08-05 01:51 (UTC) (50分前)
気温
21.7
露点
15.6
湿数
6.1
相対湿度
68.3%
QNH
1019.6hPa
推定現地気圧
1018.9hPa
推定海面気圧
1019.6hPa
体感温度
14.3
(無風時)
21.7
HI
21.7
気温前日比
-1.6
体感温度前日比
-3.3
HI前日比
-1.3
水平視程
>10SM
鉛直視程
データなし
雲底高度
6000ft AGL
V/I
VMC (VFR)
RVR
No RVR data
卓越風
10kt from 40°
ガスト
No gust
降水
報告なし
その他の天気
報告なし
少しの雲 @ 2800ft AGL / 隙間のある雲 @ 6000ft AGL / 全天を覆う雲 @ 10000ft AGL

KLGA 050151Z 04010KT 10SM FEW028 BKN060 OVC100 22/16 A3011 RMK AO2 SLP197 T02170156

KEWR/EWR  -  ニューアーク・リバティー

観測日時
2021-08-05 01:51 (UTC) (50分前)
気温
22.8
露点
15
湿数
7.8
相対湿度
61.4%
QNH
1020.0hPa
推定現地気圧
1019.4hPa
推定海面気圧
1020.0hPa
体感温度
15.9
(無風時)
22.2
HI
22.7
気温前日比
-0.5
体感温度前日比
-6.5
HI前日比
-0.5
水平視程
>10SM
鉛直視程
データなし
雲底高度
10000ft AGL
V/I
VMC (VFR)
RVR
No RVR data
卓越風
8kt from 30°
ガスト
No gust
降水
報告なし
その他の天気
報告なし
少しの雲 @ 3000ft AGL / 散在する雲 @ 7000ft AGL / 全天を覆う雲 @ 10000ft AGL

KEWR 050151Z 03008KT 10SM FEW030 SCT070 OVC100 23/15 A3012 RMK AO2 SLP198 T02280150 $

KIAD/IAD  -  ワシントン・ダレス

観測日時
2021-08-05 01:52 (UTC) (49分前)
気温
20.6
露点
13.9
湿数
6.7
相対湿度
65.4%
QNH
1020.0hPa
推定現地気圧
1008.6hPa
推定海面気圧
1019.8hPa
体感温度
15.8
(無風時)
20.8
HI
20.4
気温前日比
-0.5
体感温度前日比
±0
HI前日比
-0.7
水平視程
>10SM
鉛直視程
データなし
雲底高度
No dense clouds
V/I
VMC (VFR)
RVR
No RVR data
卓越風
3kt from 150°
ガスト
No gust
降水
報告なし
その他の天気
報告なし
目立った雲なし

KIAD 050152Z 15003KT 10SM CLR 21/14 A3012 RMK AO2 SLP197 T02060139

KDTW/DTW  -  デトロイト・メトロポリタン・ウェイン・カウンティ